sensor_id;sensor_type;location;lat;lon;timestamp;pressure;altitude;pressure_sealevel;temperature;humidity
12775;BME280;6451;42.630;23.382;2023-05-10T00:01:53;94643.78;;;13.64;100.00
12775;BME280;6451;42.630;23.382;2023-05-10T00:04:22;94644.25;;;13.66;100.00
12775;BME280;6451;42.630;23.382;2023-05-10T00:06:52;94656.59;;;13.60;100.00
12775;BME280;6451;42.630;23.382;2023-05-10T00:09:22;94629.81;;;13.66;100.00
12775;BME280;6451;42.630;23.382;2023-05-10T00:11:50;94637.72;;;13.90;100.00
12775;BME280;6451;42.630;23.382;2023-05-10T00:14:17;94642.22;;;14.02;100.00
12775;BME280;6451;42.630;23.382;2023-05-10T00:16:45;94623.72;;;13.53;100.00
12775;BME280;6451;42.630;23.382;2023-05-10T00:19:12;94644.09;;;13.78;100.00
12775;BME280;6451;42.630;23.382;2023-05-10T00:21:39;94609.94;;;13.84;100.00
12775;BME280;6451;42.630;23.382;2023-05-10T00:24:06;94636.13;;;13.70;100.00
12775;BME280;6451;42.630;23.382;2023-05-10T00:26:33;94632.56;;;13.66;100.00
12775;BME280;6451;42.630;23.382;2023-05-10T00:29:00;94620.03;;;13.45;100.00
12775;BME280;6451;42.630;23.382;2023-05-10T00:31:27;94644.34;;;13.34;100.00
12775;BME280;6451;42.630;23.382;2023-05-10T00:33:56;94617.31;;;13.45;100.00
12775;BME280;6451;42.630;23.382;2023-05-10T00:36:23;94639.88;;;13.26;100.00
12775;BME280;6451;42.630;23.382;2023-05-10T00:38:50;94505.22;;;12.57;100.00
12775;BME280;6451;42.630;23.382;2023-05-10T00:41:17;94575.19;;;13.23;100.00
12775;BME280;6451;42.630;23.382;2023-05-10T00:43:44;94638.41;;;13.48;100.00
12775;BME280;6451;42.630;23.382;2023-05-10T00:46:11;94632.84;;;13.09;100.00
12775;BME280;6451;42.630;23.382;2023-05-10T00:48:39;94632.72;;;13.38;100.00
12775;BME280;6451;42.630;23.382;2023-05-10T00:51:07;94635.22;;;13.27;100.00
12775;BME280;6451;42.630;23.382;2023-05-10T00:53:35;94619.03;;;13.18;100.00
12775;BME280;6451;42.630;23.382;2023-05-10T00:56:02;94626.78;;;13.71;100.00
12775;BME280;6451;42.630;23.382;2023-05-10T00:58:29;94633.31;;;13.12;100.00
12775;BME280;6451;42.630;23.382;2023-05-10T01:00:57;94628.38;;;13.52;100.00
12775;BME280;6451;42.630;23.382;2023-05-10T01:03:26;94626.59;;;13.60;100.00
12775;BME280;6451;42.630;23.382;2023-05-10T01:05:53;94588.53;;;13.28;100.00
12775;BME280;6451;42.630;23.382;2023-05-10T01:08:21;94628.44;;;13.37;100.00
12775;BME280;6451;42.630;23.382;2023-05-10T01:10:48;94620.00;;;13.26;100.00
12775;BME280;6451;42.630;23.382;2023-05-10T01:13:27;94515.69;;;12.55;100.00
12775;BME280;6451;42.630;23.382;2023-05-10T01:15:57;94629.53;;;13.51;100.00
12775;BME280;6451;42.630;23.382;2023-05-10T01:18:24;94628.94;;;13.61;100.00
12775;BME280;6451;42.630;23.382;2023-05-10T01:20:59;94623.88;;;13.25;100.00
12775;BME280;6451;42.630;23.382;2023-05-10T01:24:03;94619.81;;;12.84;100.00
12775;BME280;6451;42.630;23.382;2023-05-10T01:27:20;94623.19;;;13.28;100.00
12775;BME280;6451;42.630;23.382;2023-05-10T01:33:01;94624.19;;;13.20;100.00
12775;BME280;6451;42.630;23.382;2023-05-10T01:35:37;94617.13;;;13.03;100.00
12775;BME280;6451;42.630;23.382;2023-05-10T01:38:14;94611.38;;;12.89;100.00
12775;BME280;6451;42.630;23.382;2023-05-10T01:40:49;94598.91;;;12.72;100.00
12775;BME280;6451;42.630;23.382;2023-05-10T01:43:21;94553.44;;;12.41;100.00
12775;BME280;6451;42.630;23.382;2023-05-10T01:45:59;94553.28;;;12.34;100.00
12775;BME280;6451;42.630;23.382;2023-05-10T01:48:32;94583.84;;;12.59;100.00
12775;BME280;6451;42.630;23.382;2023-05-10T01:51:00;94608.41;;;12.46;100.00
12775;BME280;6451;42.630;23.382;2023-05-10T01:53:28;94599.16;;;12.04;100.00
12775;BME280;6451;42.630;23.382;2023-05-10T01:55:56;94593.41;;;12.37;100.00
12775;BME280;6451;42.630;23.382;2023-05-10T01:58:33;94538.13;;;11.73;100.00
12775;BME280;6451;42.630;23.382;2023-05-10T02:01:03;94593.91;;;12.27;100.00
12775;BME280;6451;42.630;23.382;2023-05-10T02:03:33;94605.59;;;12.43;100.00
12775;BME280;6451;42.630;23.382;2023-05-10T02:06:03;94599.88;;;12.16;100.00
12775;BME280;6451;42.630;23.382;2023-05-10T02:08:32;94612.63;;;12.44;100.00
12775;BME280;6451;42.630;23.382;2023-05-10T02:11:02;94617.59;;;12.10;100.00
12775;BME280;6451;42.630;23.382;2023-05-10T02:13:32;94612.66;;;12.00;100.00
12775;BME280;6451;42.630;23.382;2023-05-10T02:16:03;94594.56;;;11.64;100.00
12775;BME280;6451;42.630;23.382;2023-05-10T02:18:35;94597.28;;;11.64;100.00
12775;BME280;6451;42.630;23.382;2023-05-10T02:21:03;94628.88;;;11.68;100.00
12775;BME280;6451;42.630;23.382;2023-05-10T02:23:30;94583.50;;;11.29;100.00
12775;BME280;6451;42.630;23.382;2023-05-10T02:25:59;94593.28;;;11.46;100.00
12775;BME280;6451;42.630;23.382;2023-05-10T02:28:27;94609.09;;;11.56;100.00
12775;BME280;6451;42.630;23.382;2023-05-10T02:30:55;94574.50;;;11.40;100.00
12775;BME280;6451;42.630;23.382;2023-05-10T02:33:23;94609.38;;;11.38;100.00
12775;BME280;6451;42.630;23.382;2023-05-10T02:35:52;94621.72;;;11.64;100.00
12775;BME280;6451;42.630;23.382;2023-05-10T02:38:20;94616.63;;;11.34;100.00
12775;BME280;6451;42.630;23.382;2023-05-10T02:40:50;94621.16;;;11.30;100.00
12775;BME280;6451;42.630;23.382;2023-05-10T02:43:18;94595.31;;;11.08;100.00
12775;BME280;6451;42.630;23.382;2023-05-10T02:45:50;94576.72;;;11.10;100.00
12775;BME280;6451;42.630;23.382;2023-05-10T02:48:18;94625.03;;;11.17;100.00
12775;BME280;6451;42.630;23.382;2023-05-10T02:50:46;94613.72;;;11.15;100.00
12775;BME280;6451;42.630;23.382;2023-05-10T02:53:20;94609.06;;;11.28;100.00
12775;BME280;6451;42.630;23.382;2023-05-10T02:55:52;94600.38;;;11.10;100.00
12775;BME280;6451;42.630;23.382;2023-05-10T02:58:19;94606.38;;;11.16;100.00
12775;BME280;6451;42.630;23.382;2023-05-10T03:00:46;94613.16;;;11.09;100.00
12775;BME280;6451;42.630;23.382;2023-05-10T03:03:13;94605.81;;;11.10;100.00
12775;BME280;6451;42.630;23.382;2023-05-10T03:05:40;94585.22;;;11.09;100.00
12775;BME280;6451;42.630;23.382;2023-05-10T03:08:09;94613.53;;;11.08;100.00
12775;BME280;6451;42.630;23.382;2023-05-10T03:10:44;94591.13;;;10.99;100.00
12775;BME280;6451;42.630;23.382;2023-05-10T03:13:24;94609.75;;;11.25;100.00
12775;BME280;6451;42.630;23.382;2023-05-10T03:15:58;94610.16;;;11.39;100.00
12775;BME280;6451;42.630;23.382;2023-05-10T03:18:30;94598.66;;;11.30;100.00
12775;BME280;6451;42.630;23.382;2023-05-10T03:21:03;94579.34;;;11.47;100.00
12775;BME280;6451;42.630;23.382;2023-05-10T03:23:35;94618.88;;;11.45;100.00
12775;BME280;6451;42.630;23.382;2023-05-10T03:26:08;94621.16;;;11.30;100.00
12775;BME280;6451;42.630;23.382;2023-05-10T03:28:36;94608.53;;;11.10;100.00
12775;BME280;6451;42.630;23.382;2023-05-10T03:31:05;94602.34;;;10.97;100.00
12775;BME280;6451;42.630;23.382;2023-05-10T03:33:32;94587.59;;;11.10;100.00
12775;BME280;6451;42.630;23.382;2023-05-10T03:36:00;94620.59;;;11.25;100.00
12775;BME280;6451;42.630;23.382;2023-05-10T03:38:27;94624.41;;;11.48;100.00
12775;BME280;6451;42.630;23.382;2023-05-10T03:40:54;94609.22;;;11.47;100.00
12775;BME280;6451;42.630;23.382;2023-05-10T03:43:22;94618.47;;;11.30;100.00
12775;BME280;6451;42.630;23.382;2023-05-10T03:45:49;94589.06;;;11.20;100.00
12775;BME280;6451;42.630;23.382;2023-05-10T03:48:16;94629.19;;;11.39;100.00
12775;BME280;6451;42.630;23.382;2023-05-10T03:50:43;94622.97;;;11.38;100.00
12775;BME280;6451;42.630;23.382;2023-05-10T03:53:10;94624.38;;;11.60;100.00
12775;BME280;6451;42.630;23.382;2023-05-10T03:55:37;94633.09;;;11.54;100.00
12775;BME280;6451;42.630;23.382;2023-05-10T03:58:04;94552.00;;;10.88;100.00
12775;BME280;6451;42.630;23.382;2023-05-10T04:00:36;94632.13;;;11.74;100.00
12775;BME280;6451;42.630;23.382;2023-05-10T04:03:03;94641.84;;;11.87;100.00
12775;BME280;6451;42.630;23.382;2023-05-10T04:05:30;94610.19;;;11.95;100.00
12775;BME280;6451;42.630;23.382;2023-05-10T04:07:57;94622.84;;;11.75;100.00
12775;BME280;6451;42.630;23.382;2023-05-10T04:10:24;94642.31;;;11.77;100.00
12775;BME280;6451;42.630;23.382;2023-05-10T04:12:51;94623.53;;;12.00;100.00
12775;BME280;6451;42.630;23.382;2023-05-10T04:15:18;94634.50;;;11.76;100.00
12775;BME280;6451;42.630;23.382;2023-05-10T04:17:47;94645.88;;;11.93;100.00
12775;BME280;6451;42.630;23.382;2023-05-10T04:20:14;94612.44;;;11.65;100.00
12775;BME280;6451;42.630;23.382;2023-05-10T04:22:41;94613.44;;;11.73;100.00
12775;BME280;6451;42.630;23.382;2023-05-10T04:25:09;94634.84;;;11.74;100.00
12775;BME280;6451;42.630;23.382;2023-05-10T04:27:36;94622.22;;;11.54;100.00
12775;BME280;6451;42.630;23.382;2023-05-10T04:30:03;94640.34;;;11.50;100.00
12775;BME280;6451;42.630;23.382;2023-05-10T04:32:31;94618.44;;;11.70;100.00
12775;BME280;6451;42.630;23.382;2023-05-10T04:34:59;94653.19;;;11.89;100.00
12775;BME280;6451;42.630;23.382;2023-05-10T04:37:28;94646.78;;;11.98;100.00
12775;BME280;6451;42.630;23.382;2023-05-10T04:39:55;94646.28;;;12.08;100.00
12775;BME280;6451;42.630;23.382;2023-05-10T04:42:29;94647.19;;;11.72;100.00
12775;BME280;6451;42.630;23.382;2023-05-10T04:44:59;94626.97;;;11.57;100.00
12775;BME280;6451;42.630;23.382;2023-05-10T04:47:28;94633.81;;;11.79;100.00
12775;BME280;6451;42.630;23.382;2023-05-10T04:49:55;94585.81;;;11.70;100.00
12775;BME280;6451;42.630;23.382;2023-05-10T04:52:23;94641.25;;;11.94;100.00
12775;BME280;6451;42.630;23.382;2023-05-10T04:54:50;94581.56;;;11.57;100.00
12775;BME280;6451;42.630;23.382;2023-05-10T04:57:17;94645.16;;;12.24;100.00
12775;BME280;6451;42.630;23.382;2023-05-10T04:59:44;94644.28;;;12.05;100.00
12775;BME280;6451;42.630;23.382;2023-05-10T05:02:12;94636.94;;;12.21;100.00
12775;BME280;6451;42.630;23.382;2023-05-10T05:04:39;94657.16;;;12.08;100.00
12775;BME280;6451;42.630;23.382;2023-05-10T05:09:43;94622.63;;;12.71;100.00
12775;BME280;6451;42.630;23.382;2023-05-10T05:12:10;94626.28;;;12.16;100.00
12775;BME280;6451;42.630;23.382;2023-05-10T05:14:39;94639.72;;;12.24;100.00
12775;BME280;6451;42.630;23.382;2023-05-10T05:17:06;94653.44;;;12.28;100.00
12775;BME280;6451;42.630;23.382;2023-05-10T05:19:34;94646.50;;;12.31;100.00
12775;BME280;6451;42.630;23.382;2023-05-10T05:22:02;94644.94;;;12.77;100.00
12775;BME280;6451;42.630;23.382;2023-05-10T05:24:29;94654.31;;;12.32;100.00
12775;BME280;6451;42.630;23.382;2023-05-10T05:26:57;94646.25;;;12.36;100.00
12775;BME280;6451;42.630;23.382;2023-05-10T05:29:25;94659.84;;;12.36;100.00
12775;BME280;6451;42.630;23.382;2023-05-10T05:31:52;94648.38;;;12.42;100.00
12775;BME280;6451;42.630;23.382;2023-05-10T05:34:19;94640.63;;;12.29;100.00
12775;BME280;6451;42.630;23.382;2023-05-10T05:36:46;94643.03;;;12.18;100.00
12775;BME280;6451;42.630;23.382;2023-05-10T05:39:13;94643.59;;;12.23;100.00
12775;BME280;6451;42.630;23.382;2023-05-10T05:41:41;94665.94;;;12.61;100.00
12775;BME280;6451;42.630;23.382;2023-05-10T05:44:09;94662.31;;;12.41;100.00
12775;BME280;6451;42.630;23.382;2023-05-10T05:46:38;94646.56;;;12.18;100.00
12775;BME280;6451;42.630;23.382;2023-05-10T05:49:06;94671.13;;;12.50;100.00
12775;BME280;6451;42.630;23.382;2023-05-10T05:51:36;94662.41;;;12.60;100.00
12775;BME280;6451;42.630;23.382;2023-05-10T05:54:03;94631.31;;;11.86;100.00
12775;BME280;6451;42.630;23.382;2023-05-10T05:56:31;94675.47;;;12.39;100.00
12775;BME280;6451;42.630;23.382;2023-05-10T05:58:58;94675.22;;;12.44;100.00
12775;BME280;6451;42.630;23.382;2023-05-10T06:01:27;94676.88;;;12.48;100.00
12775;BME280;6451;42.630;23.382;2023-05-10T06:03:54;94678.47;;;12.49;100.00
12775;BME280;6451;42.630;23.382;2023-05-10T06:06:20;94673.28;;;12.29;100.00
12775;BME280;6451;42.630;23.382;2023-05-10T06:08:47;94679.41;;;12.25;100.00
12775;BME280;6451;42.630;23.382;2023-05-10T06:11:17;94651.91;;;12.15;100.00
12775;BME280;6451;42.630;23.382;2023-05-10T06:13:44;94676.44;;;12.31;100.00
12775;BME280;6451;42.630;23.382;2023-05-10T06:16:11;94678.16;;;12.23;100.00
12775;BME280;6451;42.630;23.382;2023-05-10T06:18:41;94678.31;;;12.14;100.00
12775;BME280;6451;42.630;23.382;2023-05-10T06:21:07;94679.06;;;12.27;100.00
12775;BME280;6451;42.630;23.382;2023-05-10T06:23:34;94691.28;;;12.65;100.00
12775;BME280;6451;42.630;23.382;2023-05-10T06:26:02;94623.41;;;12.24;100.00
12775;BME280;6451;42.630;23.382;2023-05-10T06:28:29;94686.53;;;12.46;100.00
12775;BME280;6451;42.630;23.382;2023-05-10T06:30:57;94678.56;;;12.53;100.00
12775;BME280;6451;42.630;23.382;2023-05-10T06:33:24;94695.59;;;12.50;100.00
12775;BME280;6451;42.630;23.382;2023-05-10T06:35:53;94694.47;;;12.51;100.00
12775;BME280;6451;42.630;23.382;2023-05-10T06:38:20;94693.41;;;12.71;100.00
12775;BME280;6451;42.630;23.382;2023-05-10T06:40:47;94655.22;;;12.08;100.00
12775;BME280;6451;42.630;23.382;2023-05-10T06:43:15;94693.66;;;12.35;100.00
12775;BME280;6451;42.630;23.382;2023-05-10T06:45:42;94683.78;;;12.74;100.00
12775;BME280;6451;42.630;23.382;2023-05-10T06:48:09;94680.03;;;12.35;100.00
12775;BME280;6451;42.630;23.382;2023-05-10T06:50:36;94667.06;;;12.75;100.00
12775;BME280;6451;42.630;23.382;2023-05-10T06:53:05;94680.84;;;13.14;100.00
12775;BME280;6451;42.630;23.382;2023-05-10T06:55:32;94676.81;;;13.08;100.00
12775;BME280;6451;42.630;23.382;2023-05-10T06:58:00;94666.19;;;12.56;100.00
12775;BME280;6451;42.630;23.382;2023-05-10T07:00:27;94692.88;;;12.50;100.00
12775;BME280;6451;42.630;23.382;2023-05-10T07:02:54;94691.47;;;12.56;100.00
12775;BME280;6451;42.630;23.382;2023-05-10T07:05:21;94687.88;;;12.52;100.00
12775;BME280;6451;42.630;23.382;2023-05-10T07:07:48;94623.16;;;12.45;100.00
12775;BME280;6451;42.630;23.382;2023-05-10T07:10:18;94680.25;;;12.58;100.00
12775;BME280;6451;42.630;23.382;2023-05-10T07:12:45;94686.91;;;12.60;100.00
12775;BME280;6451;42.630;23.382;2023-05-10T07:15:12;94699.22;;;12.70;100.00
12775;BME280;6451;42.630;23.382;2023-05-10T07:17:39;94660.69;;;12.24;100.00
12775;BME280;6451;42.630;23.382;2023-05-10T07:20:08;94688.25;;;12.22;100.00
12775;BME280;6451;42.630;23.382;2023-05-10T07:22:35;94700.38;;;12.25;100.00
12775;BME280;6451;42.630;23.382;2023-05-10T07:25:03;94681.88;;;12.31;100.00
12775;BME280;6451;42.630;23.382;2023-05-10T07:27:32;94698.41;;;12.69;100.00
12775;BME280;6451;42.630;23.382;2023-05-10T07:29:59;94704.44;;;12.47;100.00
12775;BME280;6451;42.630;23.382;2023-05-10T07:32:27;94695.69;;;12.53;100.00
12775;BME280;6451;42.630;23.382;2023-05-10T07:34:54;94671.13;;;12.06;100.00
12775;BME280;6451;42.630;23.382;2023-05-10T07:37:20;94702.59;;;12.35;100.00
12775;BME280;6451;42.630;23.382;2023-05-10T07:39:47;94703.88;;;12.85;100.00
12775;BME280;6451;42.630;23.382;2023-05-10T07:42:14;94709.75;;;12.71;100.00
12775;BME280;6451;42.630;23.382;2023-05-10T07:44:43;94709.84;;;12.59;100.00
12775;BME280;6451;42.630;23.382;2023-05-10T07:47:10;94711.63;;;12.83;100.00
12775;BME280;6451;42.630;23.382;2023-05-10T07:49:38;94710.22;;;12.89;100.00
12775;BME280;6451;42.630;23.382;2023-05-10T07:52:06;94715.13;;;12.68;100.00
12775;BME280;6451;42.630;23.382;2023-05-10T07:54:33;94705.44;;;12.70;100.00
12775;BME280;6451;42.630;23.382;2023-05-10T07:57:00;94712.75;;;12.98;100.00
12775;BME280;6451;42.630;23.382;2023-05-10T07:59:27;94684.00;;;13.00;100.00
12775;BME280;6451;42.630;23.382;2023-05-10T08:01:56;94716.09;;;13.23;100.00
12775;BME280;6451;42.630;23.382;2023-05-10T08:04:23;94718.38;;;13.05;100.00
12775;BME280;6451;42.630;23.382;2023-05-10T08:06:53;94703.25;;;12.76;100.00
12775;BME280;6451;42.630;23.382;2023-05-10T08:09:20;94713.63;;;13.02;100.00
12775;BME280;6451;42.630;23.382;2023-05-10T08:11:49;94721.44;;;12.88;100.00
12775;BME280;6451;42.630;23.382;2023-05-10T08:14:16;94708.88;;;12.99;100.00
12775;BME280;6451;42.630;23.382;2023-05-10T08:16:43;94691.03;;;12.70;100.00
12775;BME280;6451;42.630;23.382;2023-05-10T08:19:12;94712.59;;;13.22;100.00
12775;BME280;6451;42.630;23.382;2023-05-10T08:21:39;94721.00;;;13.01;100.00
12775;BME280;6451;42.630;23.382;2023-05-10T08:24:08;94703.69;;;12.94;100.00
12775;BME280;6451;42.630;23.382;2023-05-10T08:26:35;94720.75;;;13.38;100.00
12775;BME280;6451;42.630;23.382;2023-05-10T08:29:02;94717.47;;;13.17;100.00
12775;BME280;6451;42.630;23.382;2023-05-10T08:31:29;94720.81;;;13.10;100.00
12775;BME280;6451;42.630;23.382;2023-05-10T08:33:56;94720.63;;;13.19;100.00
12775;BME280;6451;42.630;23.382;2023-05-10T08:36:24;94717.78;;;13.12;100.00
12775;BME280;6451;42.630;23.382;2023-05-10T08:38:52;94728.22;;;13.09;100.00
12775;BME280;6451;42.630;23.382;2023-05-10T08:41:20;94722.94;;;13.01;100.00
12775;BME280;6451;42.630;23.382;2023-05-10T08:43:50;94693.16;;;12.61;100.00
12775;BME280;6451;42.630;23.382;2023-05-10T08:46:18;94721.78;;;13.02;100.00
12775;BME280;6451;42.630;23.382;2023-05-10T08:48:45;94724.88;;;13.00;100.00
12775;BME280;6451;42.630;23.382;2023-05-10T08:51:13;94727.34;;;12.90;100.00
12775;BME280;6451;42.630;23.382;2023-05-10T08:53:43;94724.09;;;12.84;100.00
12775;BME280;6451;42.630;23.382;2023-05-10T08:56:11;94711.25;;;13.00;100.00
12775;BME280;6451;42.630;23.382;2023-05-10T08:58:38;94737.28;;;12.82;100.00
12775;BME280;6451;42.630;23.382;2023-05-10T09:01:07;94713.63;;;13.02;100.00
12775;BME280;6451;42.630;23.382;2023-05-10T09:03:35;94726.72;;;13.12;100.00
12775;BME280;6451;42.630;23.382;2023-05-10T09:06:05;94727.06;;;13.26;100.00
12775;BME280;6451;42.630;23.382;2023-05-10T09:08:32;94726.38;;;12.98;100.00
12775;BME280;6451;42.630;23.382;2023-05-10T09:11:01;94717.59;;;13.04;100.00
12775;BME280;6451;42.630;23.382;2023-05-10T09:13:28;94713.91;;;12.97;100.00
12775;BME280;6451;42.630;23.382;2023-05-10T09:15:55;94690.00;;;13.22;100.00
12775;BME280;6451;42.630;23.382;2023-05-10T09:18:22;94718.72;;;13.51;100.00
12775;BME280;6451;42.630;23.382;2023-05-10T09:20:49;94652.31;;;12.92;100.00
12775;BME280;6451;42.630;23.382;2023-05-10T09:23:17;94714.97;;;13.24;100.00
12775;BME280;6451;42.630;23.382;2023-05-10T09:25:44;94714.94;;;13.40;100.00
12775;BME280;6451;42.630;23.382;2023-05-10T09:28:12;94709.66;;;13.47;100.00
12775;BME280;6451;42.630;23.382;2023-05-10T09:30:39;94716.03;;;13.89;100.00
12775;BME280;6451;42.630;23.382;2023-05-10T09:33:08;94711.97;;;13.64;100.00
12775;BME280;6451;42.630;23.382;2023-05-10T09:35:35;94704.69;;;13.87;100.00
12775;BME280;6451;42.630;23.382;2023-05-10T09:38:05;94704.91;;;13.98;100.00
12775;BME280;6451;42.630;23.382;2023-05-10T09:40:32;94703.09;;;13.67;100.00
12775;BME280;6451;42.630;23.382;2023-05-10T09:43:00;94705.47;;;13.69;100.00
12775;BME280;6451;42.630;23.382;2023-05-10T09:45:30;94710.94;;;13.88;100.00
12775;BME280;6451;42.630;23.382;2023-05-10T09:47:57;94702.53;;;13.77;100.00
12775;BME280;6451;42.630;23.382;2023-05-10T09:50:26;94700.75;;;13.85;100.00
12775;BME280;6451;42.630;23.382;2023-05-10T09:52:56;94700.97;;;14.15;100.00
12775;BME280;6451;42.630;23.382;2023-05-10T09:55:25;94647.72;;;13.47;100.00
12775;BME280;6451;42.630;23.382;2023-05-10T09:57:59;94687.09;;;13.85;100.00
12775;BME280;6451;42.630;23.382;2023-05-10T10:00:34;94699.56;;;14.63;100.00
12775;BME280;6451;42.630;23.382;2023-05-10T10:03:02;94659.31;;;14.41;100.00
12775;BME280;6451;42.630;23.382;2023-05-10T10:05:30;94696.94;;;14.28;100.00
12775;BME280;6451;42.630;23.382;2023-05-10T10:07:58;94681.44;;;14.13;100.00
12775;BME280;6451;42.630;23.382;2023-05-10T10:10:25;94677.13;;;13.93;100.00
12775;BME280;6451;42.630;23.382;2023-05-10T10:12:52;94678.94;;;14.04;100.00
12775;BME280;6451;42.630;23.382;2023-05-10T10:15:21;94671.84;;;14.42;100.00
12775;BME280;6451;42.630;23.382;2023-05-10T10:17:50;94688.97;;;13.81;100.00
12775;BME280;6451;42.630;23.382;2023-05-10T10:20:19;94682.69;;;14.58;100.00
12775;BME280;6451;42.630;23.382;2023-05-10T10:22:47;94677.25;;;14.58;100.00
12775;BME280;6451;42.630;23.382;2023-05-10T10:25:16;94682.97;;;14.33;100.00
12775;BME280;6451;42.630;23.382;2023-05-10T10:27:48;94651.94;;;13.99;100.00
12775;BME280;6451;42.630;23.382;2023-05-10T10:30:27;94682.66;;;14.35;100.00
12775;BME280;6451;42.630;23.382;2023-05-10T10:33:29;94688.53;;;14.37;100.00
12775;BME280;6451;42.630;23.382;2023-05-10T10:35:59;94683.34;;;14.32;100.00
12775;BME280;6451;42.630;23.382;2023-05-10T10:38:36;94666.69;;;14.37;100.00
12775;BME280;6451;42.630;23.382;2023-05-10T10:41:09;94657.88;;;13.85;100.00
12775;BME280;6451;42.630;23.382;2023-05-10T10:43:37;94648.38;;;14.18;100.00
12775;BME280;6451;42.630;23.382;2023-05-10T10:46:12;94686.94;;;14.55;100.00
12775;BME280;6451;42.630;23.382;2023-05-10T10:48:43;94690.53;;;14.82;100.00
12775;BME280;6451;42.630;23.382;2023-05-10T10:51:14;94686.50;;;14.53;100.00
12775;BME280;6451;42.630;23.382;2023-05-10T10:53:42;94678.63;;;14.71;100.00
12775;BME280;6451;42.630;23.382;2023-05-10T10:56:10;94666.91;;;14.93;100.00
12775;BME280;6451;42.630;23.382;2023-05-10T10:58:39;94675.41;;;15.11;100.00
12775;BME280;6451;42.630;23.382;2023-05-10T11:01:11;94645.53;;;14.76;100.00
12775;BME280;6451;42.630;23.382;2023-05-10T11:03:39;94681.00;;;15.18;100.00
12775;BME280;6451;42.630;23.382;2023-05-10T11:06:07;94696.13;;;15.92;100.00
12775;BME280;6451;42.630;23.382;2023-05-10T11:08:41;94679.41;;;15.44;100.00
12775;BME280;6451;42.630;23.382;2023-05-10T11:11:14;94681.47;;;15.01;100.00
12775;BME280;6451;42.630;23.382;2023-05-10T11:13:42;94687.97;;;15.65;100.00
12775;BME280;6451;42.630;23.382;2023-05-10T11:16:11;94691.19;;;15.74;100.00
12775;BME280;6451;42.630;23.382;2023-05-10T11:18:38;94687.44;;;15.33;100.00
12775;BME280;6451;42.630;23.382;2023-05-10T11:21:09;94686.91;;;15.73;100.00
12775;BME280;6451;42.630;23.382;2023-05-10T11:23:51;94670.84;;;15.19;100.00
12775;BME280;6451;42.630;23.382;2023-05-10T11:26:19;94676.25;;;15.15;100.00
12775;BME280;6451;42.630;23.382;2023-05-10T11:28:49;94675.06;;;15.16;100.00
12775;BME280;6451;42.630;23.382;2023-05-10T11:31:17;94672.19;;;14.83;100.00
12775;BME280;6451;42.630;23.382;2023-05-10T11:33:46;94677.13;;;15.23;100.00
12775;BME280;6451;42.630;23.382;2023-05-10T11:36:16;94666.38;;;14.84;100.00
12775;BME280;6451;42.630;23.382;2023-05-10T11:38:44;94687.25;;;15.19;100.00
12775;BME280;6451;42.630;23.382;2023-05-10T11:41:11;94659.56;;;14.97;100.00
12775;BME280;6451;42.630;23.382;2023-05-10T11:43:40;94675.75;;;15.10;100.00
12775;BME280;6451;42.630;23.382;2023-05-10T11:46:09;94554.47;;;14.42;100.00
12775;BME280;6451;42.630;23.382;2023-05-10T11:48:36;94677.53;;;14.98;100.00
12775;BME280;6451;42.630;23.382;2023-05-10T11:51:06;94695.25;;;14.85;100.00
12775;BME280;6451;42.630;23.382;2023-05-10T11:53:35;94683.19;;;14.44;100.00
12775;BME280;6451;42.630;23.382;2023-05-10T11:56:05;94680.44;;;14.86;100.00
12775;BME280;6451;42.630;23.382;2023-05-10T11:58:33;94684.19;;;15.24;100.00
12775;BME280;6451;42.630;23.382;2023-05-10T12:01:01;94661.88;;;14.50;100.00
12775;BME280;6451;42.630;23.382;2023-05-10T12:03:29;94678.31;;;14.99;100.00
12775;BME280;6451;42.630;23.382;2023-05-10T12:05:57;94682.91;;;15.18;100.00
12775;BME280;6451;42.630;23.382;2023-05-10T12:08:26;94669.72;;;16.06;100.00
12775;BME280;6451;42.630;23.382;2023-05-10T12:11:04;94671.31;;;15.51;100.00
12775;BME280;6451;42.630;23.382;2023-05-10T12:13:32;94678.31;;;14.76;100.00
12775;BME280;6451;42.630;23.382;2023-05-10T12:15:59;94650.63;;;14.78;100.00
12775;BME280;6451;42.630;23.382;2023-05-10T12:18:26;94668.03;;;15.15;100.00
12775;BME280;6451;42.630;23.382;2023-05-10T12:20:53;94669.66;;;15.46;100.00
12775;BME280;6451;42.630;23.382;2023-05-10T12:23:20;94672.47;;;15.76;100.00
12775;BME280;6451;42.630;23.382;2023-05-10T12:25:47;94664.59;;;15.48;100.00
12775;BME280;6451;42.630;23.382;2023-05-10T12:28:19;94654.00;;;15.43;100.00
12775;BME280;6451;42.630;23.382;2023-05-10T12:30:46;94654.84;;;16.04;100.00
12775;BME280;6451;42.630;23.382;2023-05-10T12:33:14;94663.00;;;16.00;100.00
12775;BME280;6451;42.630;23.382;2023-05-10T12:35:46;94582.22;;;15.80;97.21
12775;BME280;6451;42.630;23.382;2023-05-10T12:38:27;94649.59;;;16.25;96.43
12775;BME280;6451;42.630;23.382;2023-05-10T12:40:57;94649.44;;;16.11;98.25
12775;BME280;6451;42.630;23.382;2023-05-10T12:43:25;94652.69;;;16.24;98.05
12775;BME280;6451;42.630;23.382;2023-05-10T12:45:53;94655.66;;;16.45;96.25
12775;BME280;6451;42.630;23.382;2023-05-10T12:48:20;94634.81;;;16.33;96.31
12775;BME280;6451;42.630;23.382;2023-05-10T12:50:47;94652.47;;;16.73;95.12
12775;BME280;6451;42.630;23.382;2023-05-10T12:53:15;94642.53;;;16.61;95.19
12775;BME280;6451;42.630;23.382;2023-05-10T12:55:42;94651.16;;;16.63;93.56
12775;BME280;6451;42.630;23.382;2023-05-10T12:58:09;94639.47;;;16.29;95.08
12775;BME280;6451;42.630;23.382;2023-05-10T13:00:37;94636.75;;;16.70;94.00
12775;BME280;6451;42.630;23.382;2023-05-10T13:03:05;94628.69;;;16.47;95.61
12775;BME280;6451;42.630;23.382;2023-05-10T13:05:32;94634.81;;;16.33;95.62